Terminal Aerodrome Forecast
Issued by NWS

Home | Current Version | Previous Version | Graphics & Text | Print | Product List | Glossary On
Versions: 1 2 3 4 5 6 7 8 9 10 11 12 13 14 15 16 17 18 19
000
FTUS42 KMHX 231500 AAA
TAFOAJ
TAF AMD
KOAJ 231537Z 2316/2412 07010KT P6SM OVC040
     FM231800 06010KT P6SM -RA OVC035
     FM232200 08010KT 3SM RA BR SCT005 OVC009
     FM240200 17015G24KT 1 1/2SM RA BR OVC005 WS015/19040KT
     FM240800 23008KT 2SM -RA BR OVC005
      AMD LTD TO CLD VIS AND WIND=

USA.gov is the U.S. government's official web portal to all federal, state and local government web resources and services.